Time;durP1;ratioP1;P1;durP2;ratioP2;P2;SDS_P1;SDS_P2;PMS_P1;PMS_P2;Temp;Humidity;BMP_temperature;BMP_pressure;BME280_temperature;BME280_humidity;BME280_pressure;Samples;Min_cycle;Max_cycle;Signal;HPM_P1;HPM_P2
2022/01/27 00:03:13;;;;;;;7.32;6.63;;;22.20;67.10;;;;;;6199920;28;87626;-68
2022/01/27 00:06:16;;;;;;;7.97;7.18;;;22.10;67.00;;;;;;6193632;28;88394;-68
2022/01/27 00:09:25;;;;;;;7.30;6.60;;;22.10;66.90;;;;;;6199703;28;89076;-67
2022/01/27 00:12:27;;;;;;;7.07;6.38;;;22.10;66.90;;;;;;6203161;28;89923;-68
2022/01/27 00:15:33;;;;;;;11.50;6.72;;;22.10;67.00;;;;;;6196193;28;88971;-67
2022/01/27 00:18:35;;;;;;;7.03;6.32;;;22.10;66.90;;;;;;6208742;28;88985;-68
2022/01/27 00:21:37;;;;;;;7.63;6.93;;;22.10;66.90;;;;;;6204375;28;89409;-68
2022/01/27 00:24:39;;;;;;;7.63;6.72;;;22.10;66.90;;;;;;6211273;28;88913;-68
2022/01/27 00:27:41;;;;;;;6.78;6.18;;;22.00;66.80;;;;;;6211543;28;89095;-68
2022/01/27 00:30:45;;;;;;;6.53;5.93;;;22.00;66.80;;;;;;6194880;28;89074;-68
2022/01/27 00:33:48;;;;;;;7.45;6.57;;;22.00;66.90;;;;;;6209071;28;89046;-68
2022/01/27 00:36:50;;;;;;;6.97;6.30;;;22.00;66.90;;;;;;6201675;28;88308;-68
2022/01/27 00:39:52;;;;;;;6.80;6.10;;;22.00;66.90;;;;;;6204613;28;87815;-68
2022/01/27 00:42:55;;;;;;;7.53;6.43;;;22.00;66.80;;;;;;6208790;28;89369;-68
2022/01/27 00:45:58;;;;;;;6.75;6.10;;;22.00;66.80;;;;;;6194051;28;90132;-68
2022/01/27 00:49:01;;;;;;;7.22;6.53;;;22.00;66.90;;;;;;6198443;28;89683;-67
2022/01/27 00:52:03;;;;;;;6.95;6.30;;;22.00;66.90;;;;;;6198817;28;89049;-68
2022/01/27 00:55:07;;;;;;;8.10;6.00;;;21.90;66.80;;;;;;6208435;28;88001;-68
2022/01/27 00:58:23;;;;;;;6.72;6.13;;;21.90;66.70;;;;;;6223180;28;88503;-67
2022/01/27 01:01:33;;;;;;;7.03;6.32;;;21.90;66.70;;;;;;6202370;28;89540;-68
2022/01/27 01:04:39;;;;;;;7.03;6.32;;;21.90;66.70;;;;;;6195618;28;87766;-68
2022/01/27 01:07:44;;;;;;;7.22;6.60;;;21.90;66.80;;;;;;6194046;28;88447;-68
2022/01/27 01:14:32;;;;;;;7.40;6.28;;;21.80;66.60;;;;;;6202490;28;87937;-68
2022/01/27 01:17:47;;;;;;;6.97;6.28;;;21.80;66.60;;;;;;6209382;28;90800;-68
2022/01/27 01:21:12;;;;;;;6.90;6.20;;;21.80;66.70;;;;;;6195669;28;88811;-68
2022/01/27 01:30:59;;;;;;;7.00;6.30;;;21.80;66.60;;;;;;6207696;28;87497;-68
2022/01/27 01:34:14;;;;;;;7.30;6.60;;;21.70;66.60;;;;;;6209089;28;89013;-68
2022/01/27 01:37:18;;;;;;;6.85;6.20;;;21.70;66.60;;;;;;6207616;28;89452;-68
2022/01/27 01:40:20;;;;;;;6.72;6.13;;;21.70;66.60;;;;;;6207730;28;88401;-68
2022/01/27 01:43:22;;;;;;;7.00;6.30;;;21.70;66.60;;;;;;6196511;28;89239;-68
2022/01/27 01:46:24;;;;;;;7.20;6.13;;;21.70;66.60;;;;;;6208603;28;89025;-67
2022/01/27 01:49:28;;;;;;;7.07;6.38;;;21.60;66.60;;;;;;6205755;28;90107;-68
2022/01/27 01:52:30;;;;;;;7.00;6.30;;;21.60;66.60;;;;;;6199470;28;89039;-69
2022/01/27 01:55:34;;;;;;;6.82;6.13;;;21.60;66.60;;;;;;6198670;28;89009;-69
2022/01/27 01:58:36;;;;;;;7.20;6.28;;;21.60;66.60;;;;;;6201368;28;89397;-68
2022/01/27 02:01:39;;;;;;;6.70;6.10;;;21.60;66.60;;;;;;6209319;28;89099;-68
2022/01/27 02:04:43;;;;;;;6.90;6.15;;;21.60;66.60;;;;;;6199905;28;87979;-67
2022/01/27 02:07:57;;;;;;;6.63;6.03;;;21.60;66.60;;;;;;6185082;28;89493;-68
2022/01/27 02:20:59;;;;;;;6.57;5.97;;;21.50;66.50;;;;;;6204116;28;88903;-68
2022/01/27 02:24:01;;;;;;;7.07;6.38;;;21.60;66.60;;;;;;6208621;28;89071;-68
2022/01/27 02:27:05;;;;;;;6.32;5.72;;;21.50;66.60;;;;;;6192436;28;89080;-67
2022/01/27 02:30:08;;;;;;;6.57;5.97;;;21.50;66.50;;;;;;6201208;28;89134;-68
2022/01/27 02:33:10;;;;;;;7.40;6.20;;;21.50;66.60;;;;;;6195636;28;87792;-69
2022/01/27 02:36:14;;;;;;;7.13;6.43;;;21.50;66.60;;;;;;6215151;28;89030;-68
2022/01/27 02:39:16;;;;;;;6.63;6.03;;;21.50;66.60;;;;;;6195824;28;89098;-68
2022/01/27 02:42:26;;;;;;;6.57;5.97;;;21.40;66.50;;;;;;6221416;28;88337;-68
2022/01/27 02:45:41;;;;;;;6.82;6.00;;;21.40;66.50;;;;;;6196185;28;88019;-69
2022/01/27 02:48:43;;;;;;;6.55;5.60;;;21.40;66.50;;;;;;6208135;28;88922;-69
2022/01/27 02:51:46;;;;;;;6.50;5.90;;;21.40;66.60;;;;;;6193301;28;90048;-68
2022/01/27 02:54:48;;;;;;;6.40;5.80;;;21.40;66.60;;;;;;6216519;28;89064;-68
2022/01/27 02:57:50;;;;;;;6.57;5.97;;;21.40;66.50;;;;;;6197156;28;89160;-68
2022/01/27 03:00:52;;;;;;;6.38;5.78;;;21.40;66.60;;;;;;6200954;28;89107;-68
2022/01/27 03:03:55;;;;;;;6.90;6.28;;;21.40;66.50;;;;;;6211835;28;89139;-68
2022/01/27 03:06:59;;;;;;;6.25;5.65;;;21.40;66.50;;;;;;6200829;28;90094;-69
2022/01/27 03:10:01;;;;;;;6.80;5.82;;;21.40;66.50;;;;;;6208186;28;89076;-68
2022/01/27 03:13:03;;;;;;;6.63;5.75;;;21.30;66.40;;;;;;6194777;28;88408;-69
2022/01/27 03:16:08;;;;;;;6.32;5.72;;;21.40;66.50;;;;;;6207224;28;89089;-68
2022/01/27 03:19:10;;;;;;;6.72;6.03;;;21.30;66.40;;;;;;6230397;28;87966;-69
2022/01/27 03:22:14;;;;;;;7.03;6.32;;;21.30;66.40;;;;;;6201519;28;90042;-68
2022/01/27 03:25:16;;;;;;;7.00;6.25;;;21.30;66.40;;;;;;6188476;28;89059;-68
2022/01/27 03:28:19;;;;;;;6.63;6.03;;;21.30;66.60;;;;;;6195827;28;89074;-68
2022/01/27 03:31:22;;;;;;;6.80;6.20;;;21.30;66.40;;;;;;6184474;28;89109;-68
2022/01/27 03:34:24;;;;;;;6.50;5.90;;;21.30;66.50;;;;;;6205198;28;89043;-68
2022/01/27 03:37:27;;;;;;;6.35;5.75;;;21.30;66.60;;;;;;6204547;28;88997;-67
2022/01/27 03:40:29;;;;;;;6.90;6.10;;;21.20;66.50;;;;;;6203258;28;89583;-69
2022/01/27 03:43:31;;;;;;;6.68;5.95;;;21.30;66.60;;;;;;6206376;28;88431;-68
2022/01/27 03:46:34;;;;;;;6.43;5.82;;;21.20;66.50;;;;;;6213735;28;89131;-68
2022/01/27 03:49:36;;;;;;;6.35;5.75;;;21.20;66.50;;;;;;6206282;28;89075;-68
2022/01/27 03:52:39;;;;;;;6.30;5.70;;;21.20;66.50;;;;;;6196011;28;90206;-68
2022/01/27 03:55:41;;;;;;;5.82;5.32;;;21.20;66.50;;;;;;6194852;28;89074;-68
2022/01/27 03:58:44;;;;;;;6.28;5.68;;;21.20;66.50;;;;;;6197094;28;89080;-69
2022/01/27 04:01:46;;;;;;;6.25;5.65;;;21.20;66.50;;;;;;6191259;28;88988;-68
2022/01/27 04:04:47;;;;;;;6.13;5.55;;;21.20;66.40;;;;;;6193617;28;89080;-68
2022/01/27 04:07:56;;;;;;;5.97;5.40;;;21.10;66.30;;;;;;6203456;28;88245;-68
2022/01/27 04:10:58;;;;;;;6.28;5.68;;;21.20;66.50;;;;;;6204400;28;89269;-68
2022/01/27 04:14:01;;;;;;;6.10;5.50;;;21.10;66.40;;;;;;6202646;28;88755;-68
2022/01/27 04:17:03;;;;;;;6.00;5.40;;;21.20;66.50;;;;;;6205999;28;89067;-68
2022/01/27 04:20:07;;;;;;;6.30;5.40;;;21.10;66.40;;;;;;6214192;28;89055;-69
2022/01/27 04:23:10;;;;;;;5.97;5.47;;;21.10;66.50;;;;;;6204496;28;89478;-68
2022/01/27 04:26:16;;;;;;;5.68;5.18;;;21.10;66.30;;;;;;6205878;28;89239;-68
2022/01/27 04:29:21;;;;;;;6.20;5.40;;;21.10;66.30;;;;;;6206110;28;87951;-68
2022/01/27 04:32:29;;;;;;;5.65;5.15;;;21.20;66.50;;;;;;6195054;28;88289;-68
2022/01/27 04:35:35;;;;;;;5.57;5.07;;;21.20;66.30;;;;;;6205236;28;89155;-68
2022/01/27 04:38:44;;;;;;;6.10;5.50;;;21.20;66.30;;;;;;6210234;28;89032;-68
2022/01/27 04:41:52;;;;;;;5.97;5.40;;;21.20;66.30;;;;;;6206212;28;89315;-68
2022/01/27 04:45:00;;;;;;;5.90;5.35;;;21.30;66.30;;;;;;6212445;28;88419;-69
2022/01/27 04:48:09;;;;;;;5.88;5.38;;;21.30;66.10;;;;;;6203975;28;89084;-68
2022/01/27 04:51:15;;;;;;;6.10;5.53;;;21.30;66.10;;;;;;6191582;28;89157;-68
2022/01/27 04:54:23;;;;;;;5.90;5.30;;;21.30;66.00;;;;;;6207758;28;88816;-68
2022/01/27 04:57:28;;;;;;;5.95;5.35;;;21.30;66.00;;;;;;6196498;28;89470;-68
2022/01/27 05:00:30;;;;;;;5.95;5.45;;;21.30;65.80;;;;;;6204644;28;89156;-68
2022/01/27 05:03:38;;;;;;;6.05;5.55;;;21.40;66.00;;;;;;6184915;28;89104;-68
2022/01/27 05:06:41;;;;;;;5.82;5.20;;;21.40;65.90;;;;;;6200172;28;89140;-68
2022/01/27 05:09:52;;;;;;;5.90;5.40;;;21.40;65.90;;;;;;6208541;28;89106;-68
2022/01/27 05:12:59;;;;;;;5.90;5.40;;;21.40;65.80;;;;;;6200830;28;89080;-68
2022/01/27 05:16:01;;;;;;;5.88;5.28;;;21.40;65.70;;;;;;6207585;28;88477;-67
2022/01/27 05:19:04;;;;;;;5.55;5.05;;;21.50;65.80;;;;;;6208827;28;88951;-69
2022/01/27 05:22:06;;;;;;;5.90;5.40;;;21.50;65.80;;;;;;6209105;28;89213;-67
2022/01/27 05:25:10;;;;;;;6.03;5.43;;;21.50;65.70;;;;;;6189622;28;88891;-69
2022/01/27 05:28:12;;;;;;;5.95;5.35;;;21.50;65.70;;;;;;6198405;28;89012;-68
2022/01/27 05:31:14;;;;;;;5.55;5.05;;;21.50;65.70;;;;;;6208604;28;89303;-68
2022/01/27 05:34:16;;;;;;;5.32;4.90;;;21.50;65.70;;;;;;6207804;28;89060;-68
2022/01/27 05:37:18;;;;;;;5.57;4.97;;;21.50;65.70;;;;;;6206193;28;87977;-68
2022/01/27 05:40:40;;;;;;;5.75;5.18;;;21.50;65.70;;;;;;6196576;28;88687;-68
2022/01/27 05:43:42;;;;;;;5.80;5.30;;;21.50;65.70;;;;;;6196012;28;89018;-68
2022/01/27 05:46:44;;;;;;;5.50;5.00;;;21.50;65.70;;;;;;6198291;28;88377;-68
2022/01/27 05:49:46;;;;;;;5.55;5.05;;;21.50;65.70;;;;;;6211729;28;89038;-68
2022/01/27 05:52:48;;;;;;;6.05;5.45;;;21.50;66.70;;;;;;6195395;28;88725;-68
2022/01/27 05:55:52;;;;;;;6.20;5.60;;;21.50;65.70;;;;;;6200516;28;90174;-68
2022/01/27 05:58:54;;;;;;;6.53;5.93;;;21.60;65.80;;;;;;6208173;28;89039;-68
2022/01/27 06:01:56;;;;;;;7.43;6.63;;;21.60;65.90;;;;;;6183629;28;89053;-67
2022/01/27 06:04:58;;;;;;;6.60;6.00;;;21.60;65.20;;;;;;6191310;28;89117;-67
2022/01/27 06:08:00;;;;;;;7.47;6.40;;;21.60;65.50;;;;;;6202988;28;89278;-68
2022/01/27 06:11:04;;;;;;;6.45;5.85;;;21.60;65.60;;;;;;6189857;28;87903;-67
2022/01/27 06:14:06;;;;;;;6.45;5.70;;;21.70;65.70;;;;;;6203603;28;89530;-68
2022/01/27 06:17:08;;;;;;;6.70;6.00;;;21.70;65.70;;;;;;6202922;28;88267;-67
2022/01/27 06:20:10;;;;;;;8.60;6.28;;;21.70;65.60;;;;;;6205615;28;89166;-68
2022/01/27 06:23:13;;;;;;;8.05;5.80;;;21.70;65.60;;;;;;6199518;28;89366;-68
2022/01/27 06:26:17;;;;;;;7.78;6.13;;;21.70;65.70;;;;;;6200431;28;90269;-68
2022/01/27 06:29:19;;;;;;;8.95;6.05;;;21.70;65.70;;;;;;6205943;28;89147;-67
2022/01/27 06:32:21;;;;;;;9.88;6.47;;;21.80;65.80;;;;;;6206291;28;89477;-68
2022/01/27 06:35:23;;;;;;;9.68;6.47;;;21.80;65.70;;;;;;6189987;28;89240;-67
2022/01/27 06:38:25;;;;;;;8.77;6.15;;;21.80;65.70;;;;;;6204822;28;89042;-67
2022/01/27 06:41:47;;;;;;;8.73;6.13;;;21.80;65.70;;;;;;6189245;28;89020;-67
2022/01/27 06:44:49;;;;;;;10.57;6.45;;;21.90;65.70;;;;;;6195845;28;89126;-68
2022/01/27 06:47:51;;;;;;;10.05;6.80;;;21.90;65.70;;;;;;6195089;28;88868;-68
2022/01/27 06:50:55;;;;;;;10.85;6.50;;;21.90;65.70;;;;;;6205978;28;89605;-68
2022/01/27 06:53:58;;;;;;;12.07;6.55;;;21.90;65.70;;;;;;6195232;28;88947;-68
2022/01/27 06:57:02;;;;;;;13.18;7.03;;;22.00;65.80;;;;;;6204097;28;90008;-67
2022/01/27 07:00:06;;;;;;;13.73;7.50;;;22.00;65.80;;;;;;6200827;28;89082;-67
2022/01/27 07:03:08;;;;;;;14.07;7.25;;;22.00;66.00;;;;;;6201149;28;87998;-68
2022/01/27 07:06:11;;;;;;;13.88;7.45;;;22.00;66.20;;;;;;6203811;28;88973;-68
2022/01/27 07:09:12;;;;;;;13.77;7.43;;;22.10;66.10;;;;;;6205504;28;89058;-68
2022/01/27 07:12:16;;;;;;;12.60;6.88;;;22.10;66.00;;;;;;6206384;28;89195;-68
2022/01/27 07:15:18;;;;;;;12.05;6.80;;;22.10;66.00;;;;;;6194869;28;87958;-67
2022/01/27 07:18:20;;;;;;;12.13;7.07;;;22.10;65.90;;;;;;6195046;28;88412;-67
2022/01/27 07:21:22;;;;;;;11.30;6.97;;;22.20;66.00;;;;;;6198112;28;89134;-68
2022/01/27 07:24:24;;;;;;;11.07;6.43;;;22.20;65.90;;;;;;6193637;28;89322;-68
2022/01/27 07:27:28;;;;;;;10.70;6.38;;;22.20;65.90;;;;;;6192301;28;90174;-68
2022/01/27 07:30:30;;;;;;;10.57;6.28;;;22.20;65.90;;;;;;6198794;28;89175;-67
2022/01/27 07:33:32;;;;;;;10.25;6.55;;;22.20;65.90;;;;;;6199226;28;89423;-67
2022/01/27 07:36:34;;;;;;;12.55;7.68;;;22.30;65.90;;;;;;6193602;28;89104;-67
2022/01/27 07:39:36;;;;;;;9.80;6.70;;;22.30;72.10;;;;;;6206789;28;89069;-67
2022/01/27 07:42:39;;;;;;;11.43;7.15;;;22.40;70.20;;;;;;6204949;28;89312;-67
2022/01/27 07:45:41;;;;;;;12.52;7.85;;;22.50;68.60;;;;;;6206502;28;89092;-70
2022/01/27 07:48:44;;;;;;;51.80;28.35;;;22.60;66.90;;;;;;6205394;28;88355;-66
2022/01/27 07:51:46;;;;;;;65.22;42.53;;;22.70;69.90;;;;;;6198001;28;89107;-68
2022/01/27 07:54:48;;;;;;;44.47;33.63;;;22.70;69.80;;;;;;6197901;28;88948;-68
2022/01/27 07:57:51;;;;;;;33.75;24.90;;;22.70;66.20;;;;;;6196876;28;90094;-67
2022/01/27 08:00:53;;;;;;;28.13;17.90;;;22.70;65.10;;;;;;6192425;28;88193;-67
2022/01/27 08:03:55;;;;;;;22.75;15.07;;;22.70;65.70;;;;;;6200289;28;89059;-67
2022/01/27 08:06:57;;;;;;;20.45;14.60;;;22.70;65.00;;;;;;6204833;28;89341;-68
2022/01/27 08:09:59;;;;;;;17.67;13.02;;;22.80;65.30;;;;;;6202067;28;88875;-68
2022/01/27 08:13:03;;;;;;;16.25;11.40;;;22.70;65.50;;;;;;6184651;28;89081;-68
2022/01/27 08:16:05;;;;;;;16.15;11.80;;;22.70;65.50;;;;;;6202472;28;89085;-68
2022/01/27 08:19:08;;;;;;;15.68;11.23;;;22.70;65.60;;;;;;6181707;28;88279;-69
2022/01/27 08:22:10;;;;;;;16.35;10.95;;;22.70;65.80;;;;;;6208753;28;89360;-68
2022/01/27 08:25:12;;;;;;;16.75;10.32;;;22.70;65.70;;;;;;6191216;28;88875;-68
2022/01/27 08:28:24;;;;;;;15.68;9.80;;;22.70;65.90;;;;;;6193115;28;90377;-67
2022/01/27 08:31:33;;;;;;;13.20;9.27;;;22.70;65.90;;;;;;6199946;28;88776;-68
2022/01/27 08:34:37;;;;;;;12.00;8.98;;;22.70;65.80;;;;;;6211572;28;89859;-68
2022/01/27 08:37:40;;;;;;;12.32;8.48;;;22.70;65.70;;;;;;6203541;28;89247;-68
2022/01/27 08:40:42;;;;;;;13.35;8.82;;;22.80;65.80;;;;;;6207045;28;89382;-68
2022/01/27 08:43:46;;;;;;;12.10;8.15;;;22.80;65.80;;;;;;6214317;28;89210;-68
2022/01/27 08:46:48;;;;;;;10.25;7.57;;;22.80;65.80;;;;;;6193378;28;89144;-68
2022/01/27 08:49:50;;;;;;;10.55;7.60;;;22.70;65.70;;;;;;6187369;28;88372;-68
2022/01/27 08:52:52;;;;;;;12.95;7.82;;;22.80;65.70;;;;;;6197568;28;87938;-68
2022/01/27 08:55:54;;;;;;;9.50;7.13;;;22.80;65.60;;;;;;6197908;28;89114;-68
2022/01/27 08:58:58;;;;;;;10.80;7.25;;;22.80;65.60;;;;;;6204700;28;90002;-67
2022/01/27 09:02:00;;;;;;;9.90;7.30;;;22.80;65.60;;;;;;6208210;28;89376;-68
2022/01/27 09:05:03;;;;;;;9.63;6.90;;;22.80;65.50;;;;;;6213079;28;89335;-68
2022/01/27 09:08:05;;;;;;;8.63;6.82;;;22.90;65.50;;;;;;6192091;28;89111;-67
2022/01/27 09:11:08;;;;;;;9.43;6.90;;;22.80;65.40;;;;;;6187734;28;89279;-68
2022/01/27 09:14:12;;;;;;;10.52;7.53;;;22.80;65.40;;;;;;6209465;28;88864;-68
2022/01/27 09:17:15;;;;;;;7.88;6.72;;;22.80;65.40;;;;;;6207963;28;89334;-68
2022/01/27 09:20:17;;;;;;;10.13;7.32;;;22.80;65.40;;;;;;6202103;28;88429;-69
2022/01/27 09:23:19;;;;;;;9.52;6.85;;;22.80;65.30;;;;;;6209568;28;89128;-67
2022/01/27 09:26:40;;;;;;;8.20;6.45;;;22.80;65.40;;;;;;6208815;28;88897;-69
2022/01/27 09:29:44;;;;;;;9.40;6.18;;;22.90;65.40;;;;;;6207740;28;89974;-67
2022/01/27 09:32:47;;;;;;;7.95;6.35;;;22.90;65.30;;;;;;6201262;28;89302;-67
2022/01/27 09:35:49;;;;;;;7.75;6.20;;;22.90;65.20;;;;;;6195769;28;89058;-68
2022/01/27 09:38:51;;;;;;;8.10;6.15;;;22.90;65.20;;;;;;6208119;28;89447;-68
2022/01/27 09:41:55;;;;;;;7.45;6.18;;;22.90;65.20;;;;;;6210762;28;89440;-67
2022/01/27 09:45:03;;;;;;;7.90;6.40;;;22.90;65.20;;;;;;6208746;28;88999;-67
2022/01/27 09:48:12;;;;;;;6.75;5.70;;;22.90;65.20;;;;;;6194306;28;89401;-68
2022/01/27 09:51:26;;;;;;;7.68;5.88;;;22.90;65.30;;;;;;6194678;28;88145;-68
2022/01/27 09:54:28;;;;;;;8.55;6.35;;;22.90;65.20;;;;;;6197318;28;89612;-68
2022/01/27 09:57:30;;;;;;;7.32;6.20;;;22.90;65.30;;;;;;6202600;28;89115;-68
2022/01/27 10:00:34;;;;;;;7.35;5.60;;;22.80;65.20;;;;;;6188498;28;89971;-68
2022/01/27 10:03:53;;;;;;;6.68;5.63;;;22.80;65.20;;;;;;6202435;28;89129;-68
2022/01/27 10:06:58;;;;;;;6.25;5.55;;;22.90;65.30;;;;;;6183035;28;87981;-68
2022/01/27 10:10:02;;;;;;;6.47;5.50;;;22.80;65.30;;;;;;6195600;28;89102;-68
2022/01/27 10:13:07;;;;;;;5.85;5.15;;;22.80;65.30;;;;;;6185944;28;88940;-67
2022/01/27 10:16:28;;;;;;;7.03;5.57;;;22.80;65.40;;;;;;6209079;28;89120;-67
2022/01/27 10:19:30;;;;;;;5.88;4.90;;;22.80;65.40;;;;;;6195845;28;87956;-68
2022/01/27 10:22:32;;;;;;;6.97;5.15;;;22.80;65.40;;;;;;6206711;28;87557;-68
2022/01/27 10:25:35;;;;;;;6.60;5.30;;;22.80;65.40;;;;;;6208382;28;89171;-68
2022/01/27 10:28:44;;;;;;;6.28;5.50;;;22.80;65.40;;;;;;6207624;28;89100;-67
2022/01/27 10:31:48;;;;;;;5.85;5.18;;;22.80;65.40;;;;;;6194391;28;89995;-68
2022/01/27 10:34:57;;;;;;;5.53;4.90;;;22.70;65.40;;;;;;6206332;28;87925;-68
2022/01/27 10:38:02;;;;;;;5.55;5.00;;;22.70;65.40;;;;;;6220963;28;89034;-67
2022/01/27 10:41:07;;;;;;;6.07;5.20;;;22.70;65.40;;;;;;6195801;28;88975;-68
2022/01/27 10:44:12;;;;;;;6.25;5.28;;;22.70;65.40;;;;;;6207492;28;89086;-68
2022/01/27 10:47:20;;;;;;;5.55;4.93;;;22.70;65.50;;;;;;6206772;28;89290;-68
2022/01/27 10:50:22;;;;;;;5.90;5.07;;;22.70;65.50;;;;;;6208962;28;89142;-68
2022/01/27 10:53:53;;;;;;;6.97;5.43;;;22.70;65.50;;;;;;6206587;28;88743;-68
2022/01/27 10:56:55;;;;;;;5.55;4.90;;;22.60;65.50;;;;;;6195243;28;89008;-68
2022/01/27 11:00:08;;;;;;;5.53;5.00;;;22.60;65.50;;;;;;6195354;28;87797;-68
2022/01/27 11:03:13;;;;;;;6.47;5.43;;;22.60;65.50;;;;;;6186313;28;89946;-68
2022/01/27 11:06:15;;;;;;;5.43;4.68;;;22.60;65.50;;;;;;6183370;28;89112;-68
2022/01/27 11:09:17;;;;;;;5.47;4.85;;;22.60;65.50;;;;;;6182236;28;88074;-68
2022/01/27 11:12:19;;;;;;;5.50;4.70;;;22.60;65.50;;;;;;6193430;28;89244;-68
2022/01/27 11:15:22;;;;;;;5.80;4.80;;;22.60;65.50;;;;;;6186099;28;89054;-67
2022/01/27 11:18:28;;;;;;;5.65;4.68;;;22.50;65.50;;;;;;6187700;28;89081;-68
2022/01/27 11:21:35;;;;;;;6.63;4.75;;;22.50;65.50;;;;;;6205779;28;89341;-68
2022/01/27 11:25:05;;;;;;;5.50;4.68;;;22.50;65.50;;;;;;6206817;28;88369;-67
2022/01/27 11:28:08;;;;;;;5.35;4.30;;;22.50;65.50;;;;;;6190655;28;88481;-67
2022/01/27 11:31:21;;;;;;;5.18;4.68;;;22.50;65.70;;;;;;6195944;28;89106;-68
2022/01/27 11:34:43;;;;;;;5.95;4.50;;;22.40;65.70;;;;;;6206193;28;90457;-68
2022/01/27 11:37:50;;;;;;;4.53;4.13;;;22.40;65.90;;;;;;6206360;28;89131;-68
2022/01/27 11:40:52;;;;;;;4.97;4.47;;;22.40;66.00;;;;;;6191071;28;89072;-67
2022/01/27 11:44:21;;;;;;;4.63;4.22;;;22.30;66.00;;;;;;6182991;28;89122;-68
2022/01/27 11:47:23;;;;;;;4.50;4.10;;;22.30;66.00;;;;;;6198779;28;87813;-67
2022/01/27 11:50:36;;;;;;;4.57;4.10;;;22.30;66.20;;;;;;6217649;28;89489;-67
2022/01/27 11:53:40;;;;;;;4.82;4.28;;;22.30;66.20;;;;;;6206752;28;89519;-67
2022/01/27 11:56:43;;;;;;;4.50;4.10;;;22.20;66.20;;;;;;6200584;28;89815;-67
2022/01/27 11:59:45;;;;;;;4.88;4.28;;;22.20;66.50;;;;;;6210844;28;89074;-68
2022/01/27 12:03:15;;;;;;;4.55;4.15;;;22.20;66.50;;;;;;6193556;28;89077;-67
2022/01/27 12:06:20;;;;;;;4.60;4.20;;;22.20;66.60;;;;;;6186593;28;90023;-68
2022/01/27 12:09:31;;;;;;;4.47;4.03;;;22.10;66.60;;;;;;6198807;28;89286;-68
2022/01/27 12:12:34;;;;;;;4.47;3.95;;;22.20;66.70;;;;;;6209843;28;89356;-68
2022/01/27 12:16:24;;;;;;;4.22;3.83;;;22.10;66.70;;;;;;6197655;28;88982;-67
2022/01/27 12:19:46;;;;;;;4.25;3.85;;;22.10;66.70;;;;;;6209746;28;88996;-68
2022/01/27 12:23:04;;;;;;;4.30;3.90;;;22.10;66.60;;;;;;6210812;28;89142;-68
2022/01/27 12:26:06;;;;;;;4.30;3.90;;;22.10;66.70;;;;;;6185827;28;87952;-68
2022/01/27 12:29:09;;;;;;;4.25;3.85;;;22.00;66.70;;;;;;6200685;28;88453;-67
2022/01/27 12:32:20;;;;;;;4.38;3.97;;;22.00;66.80;;;;;;6197782;28;89033;-68
2022/01/27 12:35:22;;;;;;;4.15;3.75;;;22.00;66.80;;;;;;6199201;28;90007;-68
2022/01/27 12:38:25;;;;;;;4.25;3.85;;;22.00;66.90;;;;;;6185804;28;88996;-68
2022/01/27 12:41:28;;;;;;;4.05;3.65;;;22.00;67.00;;;;;;6211834;28;88264;-67
2022/01/27 12:44:31;;;;;;;4.90;3.95;;;22.00;67.10;;;;;;6215044;28;89190;-68
2022/01/27 12:47:34;;;;;;;5.85;4.28;;;22.00;67.10;;;;;;6207276;28;90665;-68
2022/01/27 12:50:37;;;;;;;4.20;3.80;;;21.90;67.10;;;;;;6213998;28;87898;-68
2022/01/27 12:53:41;;;;;;;3.85;3.53;;;21.90;67.00;;;;;;6198613;28;88838;-68
2022/01/27 12:56:43;;;;;;;4.18;3.78;;;21.90;67.10;;;;;;6222090;28;88790;-67
2022/01/27 12:59:45;;;;;;;3.85;3.47;;;21.80;66.90;;;;;;6208899;28;88134;-68
2022/01/27 13:02:47;;;;;;;4.15;3.75;;;21.90;67.00;;;;;;6190272;28;88109;-67
2022/01/27 13:05:53;;;;;;;4.35;3.95;;;21.90;67.10;;;;;;6196280;28;88012;-68
2022/01/27 13:09:12;;;;;;;4.18;3.45;;;21.90;67.10;;;;;;6207683;28;89981;-68
2022/01/27 13:12:19;;;;;;;4.28;3.88;;;21.80;67.20;;;;;;6215355;28;89096;-68
2022/01/27 13:15:25;;;;;;;3.72;3.42;;;21.80;67.10;;;;;;6193174;28;89167;-67
2022/01/27 13:18:31;;;;;;;4.10;3.70;;;21.80;67.10;;;;;;6208729;28;89260;-68
2022/01/27 13:21:36;;;;;;;3.83;3.45;;;21.80;67.10;;;;;;6202232;28;89625;-68
2022/01/27 13:24:48;;;;;;;3.80;3.50;;;21.80;67.10;;;;;;6198586;28;89087;-67
2022/01/27 13:28:04;;;;;;;3.60;3.30;;;21.80;67.20;;;;;;6207983;28;88744;-68
2022/01/27 13:31:08;;;;;;;3.85;3.42;;;21.80;67.20;;;;;;6185801;28;88362;-68
2022/01/27 13:34:11;;;;;;;4.10;3.70;;;21.70;67.10;;;;;;6184533;28;87943;-67
2022/01/27 13:43:54;;;;;;;3.60;3.30;;;21.70;67.20;;;;;;6177840;28;87724;-68
2022/01/27 13:46:59;;;;;;;4.07;3.67;;;21.70;67.20;;;;;;6195976;28;89392;-68
2022/01/27 13:50:10;;;;;;;3.40;3.10;;;21.70;67.20;;;;;;6205668;28;89146;-67
2022/01/27 13:53:12;;;;;;;3.80;3.50;;;21.70;67.10;;;;;;6201950;28;89148;-68
2022/01/27 13:56:15;;;;;;;3.67;3.38;;;21.70;67.00;;;;;;6209372;28;88303;-68
2022/01/27 13:59:20;;;;;;;3.50;3.20;;;21.70;67.10;;;;;;6186508;28;89170;-68
2022/01/27 14:02:26;;;;;;;3.60;3.30;;;21.70;67.00;;;;;;6195953;28;88401;-67
2022/01/27 14:05:28;;;;;;;3.35;3.05;;;21.70;67.10;;;;;;6197613;28;89124;-68
2022/01/27 14:08:38;;;;;;;3.67;3.38;;;21.60;66.90;;;;;;6209904;28;90355;-68
2022/01/27 14:11:41;;;;;;;3.63;3.33;;;21.60;66.90;;;;;;6191411;28;89990;-68
2022/01/27 14:14:48;;;;;;;3.53;3.22;;;21.60;67.00;;;;;;6211741;28;89093;-67
2022/01/27 14:17:58;;;;;;;3.53;3.22;;;21.60;67.00;;;;;;6207226;28;89055;-67
2022/01/27 14:21:02;;;;;;;3.50;3.20;;;21.60;67.00;;;;;;6207710;28;87922;-69
2022/01/27 14:24:09;;;;;;;3.33;3.03;;;21.60;67.00;;;;;;6194877;28;89021;-68
2022/01/27 14:27:13;;;;;;;3.38;3.08;;;21.60;67.10;;;;;;6190699;28;87986;-67
2022/01/27 14:30:18;;;;;;;3.42;3.13;;;21.60;67.10;;;;;;6201334;28;88228;-68
2022/01/27 14:33:20;;;;;;;3.30;3.00;;;21.60;67.10;;;;;;6184310;28;88330;-68
2022/01/27 14:36:22;;;;;;;3.40;3.10;;;21.50;67.10;;;;;;6195985;28;89068;-68
2022/01/27 14:39:24;;;;;;;3.08;2.78;;;21.50;67.10;;;;;;6202160;28;89082;-68
2022/01/27 14:42:28;;;;;;;3.38;3.08;;;21.50;67.00;;;;;;6216601;28;89972;-68
2022/01/27 14:45:31;;;;;;;3.20;2.70;;;21.60;67.00;;;;;;6194903;28;89319;-68
2022/01/27 14:48:36;;;;;;;3.35;3.05;;;21.50;66.90;;;;;;6183315;28;89093;-68
2022/01/27 14:51:39;;;;;;;3.03;2.83;;;21.50;66.80;;;;;;6197153;28;90516;-68
2022/01/27 14:54:41;;;;;;;3.25;2.90;;;21.50;66.60;;;;;;6194170;28;89350;-67
2022/01/27 14:57:44;;;;;;;3.40;3.10;;;21.60;66.60;;;;;;6197958;28;88272;-68
2022/01/27 15:00:47;;;;;;;3.15;2.90;;;21.60;66.40;;;;;;6196044;28;89051;-68
2022/01/27 15:03:49;;;;;;;2.97;2.78;;;21.60;66.40;;;;;;6187149;28;87313;-69
2022/01/27 15:06:51;;;;;;;3.28;2.97;;;21.60;66.30;;;;;;6186511;28;89606;-68
2022/01/27 15:09:53;;;;;;;2.97;2.75;;;21.60;66.20;;;;;;6195305;28;89110;-67
2022/01/27 15:12:57;;;;;;;3.20;2.90;;;21.60;66.20;;;;;;6205171;28;90122;-68
2022/01/27 15:19:34;;;;;;;2.80;2.60;;;21.60;66.20;;;;;;6184407;28;87559;-68
2022/01/27 15:22:36;;;;;;;3.15;2.85;;;21.60;66.10;;;;;;6200065;28;89230;-68
2022/01/27 15:25:38;;;;;;;3.05;2.83;;;21.60;66.10;;;;;;6199426;28;89104;-68
2022/01/27 15:28:41;;;;;;;2.60;2.40;;;21.60;65.90;;;;;;6195387;28;89076;-68
2022/01/27 15:31:43;;;;;;;2.95;2.63;;;21.60;65.90;;;;;;6196013;28;89128;-68
2022/01/27 15:34:45;;;;;;;3.13;2.83;;;21.70;65.90;;;;;;6211281;28;88359;-68
2022/01/27 15:37:48;;;;;;;3.33;3.03;;;21.70;65.70;;;;;;6194300;28;88105;-68
2022/01/27 15:40:50;;;;;;;3.03;2.72;;;21.70;65.60;;;;;;6206692;28;89161;-69
2022/01/27 15:43:55;;;;;;;3.00;2.80;;;21.70;65.60;;;;;;6207126;28;89345;-67
2022/01/27 15:46:57;;;;;;;2.90;2.70;;;21.70;65.50;;;;;;6183199;28;89563;-68
2022/01/27 15:49:59;;;;;;;3.85;2.65;;;21.70;65.50;;;;;;6181115;28;89093;-68
2022/01/27 15:53:01;;;;;;;3.20;2.80;;;21.70;65.40;;;;;;6212162;28;89254;-68
2022/01/27 15:56:04;;;;;;;2.92;2.72;;;21.80;65.40;;;;;;6212366;28;89249;-68
2022/01/27 15:59:08;;;;;;;2.85;2.65;;;21.80;65.30;;;;;;6212339;28;89331;-68
2022/01/27 16:02:10;;;;;;;2.97;2.75;;;21.80;65.20;;;;;;6191336;28;89087;-68
2022/01/27 16:05:12;;;;;;;2.90;2.70;;;21.90;65.20;;;;;;6184666;28;88342;-69
2022/01/27 16:08:14;;;;;;;3.22;2.92;;;21.90;65.00;;;;;;6197185;28;89352;-67
2022/01/27 16:11:16;;;;;;;2.92;2.63;;;21.90;65.00;;;;;;6191901;28;89062;-68
2022/01/27 16:14:19;;;;;;;3.00;2.80;;;21.90;64.90;;;;;;6194922;28;89996;-68
2022/01/27 16:17:22;;;;;;;3.95;3.08;;;22.00;64.90;;;;;;6204097;28;88993;-68
2022/01/27 16:20:25;;;;;;;2.80;2.60;;;22.00;64.90;;;;;;6207508;28;89413;-68
2022/01/27 16:23:29;;;;;;;2.83;2.53;;;22.00;64.80;;;;;;6206185;28;88293;-67
2022/01/27 16:26:31;;;;;;;2.95;2.75;;;22.00;64.70;;;;;;6202674;28;89136;-68
2022/01/27 16:29:34;;;;;;;2.92;2.70;;;22.10;64.70;;;;;;6194568;28;89084;-67
2022/01/27 16:32:36;;;;;;;3.28;2.97;;;22.10;64.70;;;;;;6206393;28;89061;-68